createdAt,value
2022-10-25T00:04:59.758Z,11.81
2022-10-25T00:35:33.842Z,11.92
2022-10-25T00:41:15.184Z,11.91
2022-10-25T02:02:24.803Z,12.10
2022-10-25T02:05:03.681Z,12.07
2022-10-25T02:13:10.272Z,11.89
2022-10-25T02:34:30.807Z,11.51
2022-10-25T02:36:57.898Z,11.46
2022-10-25T02:39:30.595Z,11.39
2022-10-25T02:44:45.769Z,11.26
2022-10-25T02:50:03.852Z,11.23
2022-10-25T02:55:39.490Z,11.25
2022-10-25T02:58:06.248Z,11.21
2022-10-25T03:00:33.461Z,11.19
2022-10-25T03:03:00.862Z,11.20
2022-10-25T03:08:09.556Z,11.11
2022-10-25T03:10:37.374Z,11.09
2022-10-25T03:13:04.211Z,11.11
2022-10-25T03:15:30.886Z,11.10
2022-10-25T03:18:04.216Z,11.10
2022-10-25T03:23:17.947Z,11.02
2022-10-25T03:25:46.649Z,11.03
2022-10-25T03:28:30.349Z,11.04
2022-10-25T03:36:29.381Z,11.05
2022-10-25T03:38:56.701Z,11.07
2022-10-25T03:41:23.600Z,11.00
2022-10-25T03:43:52.028Z,10.98
2022-10-25T03:46:19.587Z,10.95
2022-10-25T03:48:47.507Z,10.92
2022-10-25T03:51:15.087Z,10.91
2022-10-25T03:53:42.251Z,10.90
2022-10-25T03:56:09.716Z,10.93
2022-10-25T03:58:37.746Z,10.89
2022-10-25T04:01:10.425Z,10.89
2022-10-25T04:03:37.679Z,10.93
2022-10-25T04:06:06.458Z,10.97
2022-10-25T04:08:33.324Z,10.98
2022-10-25T04:11:00.106Z,10.95
2022-10-25T04:13:30.387Z,10.94
2022-10-25T04:15:57.708Z,10.94
2022-10-25T04:18:26.034Z,10.96
2022-10-25T04:20:53.875Z,11.02
2022-10-25T04:23:21.177Z,11.00
2022-10-25T04:25:49.246Z,11.03
2022-10-25T04:28:22.718Z,11.05
2022-10-25T04:30:52.292Z,11.02
2022-10-25T04:36:00.076Z,11.05
2022-10-25T04:38:30.049Z,11.04
2022-10-25T04:43:42.484Z,11.01
2022-10-25T04:48:50.683Z,11.07
2022-10-25T04:51:19.211Z,11.02
2022-10-25T04:56:30.423Z,10.99
2022-10-25T04:58:58.998Z,10.95
2022-10-25T05:04:07.891Z,10.96
2022-10-25T05:06:35.424Z,10.91
2022-10-25T05:09:03.145Z,10.92
2022-10-25T05:11:30.306Z,10.92
2022-10-25T05:13:57.856Z,10.95
2022-10-25T05:16:25.889Z,10.86
2022-10-25T05:18:56.203Z,10.82
2022-10-25T05:21:23.781Z,10.73
2022-10-25T05:23:51.178Z,10.65
2022-10-25T05:26:19.996Z,10.61
2022-10-25T05:28:53.630Z,10.55
2022-10-25T05:31:25.581Z,10.54
2022-10-25T05:33:53.202Z,10.61
2022-10-25T05:36:21.447Z,10.60
2022-10-25T05:38:57.115Z,10.64
2022-10-25T05:44:08.398Z,10.70
2022-10-25T05:46:39.095Z,10.67
2022-10-25T05:49:06.700Z,10.70
2022-10-25T05:51:37.387Z,10.63
2022-10-25T05:54:12.425Z,10.61
2022-10-25T05:56:39.594Z,10.71
2022-10-25T05:59:11.747Z,10.73
2022-10-25T06:01:44.433Z,10.76
2022-10-25T06:04:12.174Z,10.78
2022-10-25T06:06:39.631Z,10.77
2022-10-25T06:09:06.848Z,10.78
2022-10-25T06:11:34.307Z,10.78
2022-10-25T06:14:02.568Z,10.79
2022-10-25T06:16:29.547Z,10.77
2022-10-25T06:18:57.820Z,10.79
2022-10-25T06:21:27.393Z,10.74
2022-10-25T06:23:54.345Z,10.73
2022-10-25T06:26:24.804Z,10.78
2022-10-25T06:28:52.659Z,10.82
2022-10-25T06:31:20.955Z,10.89
2022-10-25T06:33:52.739Z,10.85
2022-10-25T06:36:20.949Z,10.91
2022-10-25T06:38:48.150Z,10.93
2022-10-25T06:41:19.620Z,10.96
2022-10-25T06:43:47.504Z,10.89
2022-10-25T06:46:28.355Z,10.95
2022-10-25T06:48:55.679Z,10.93
2022-10-25T06:51:23.567Z,10.98
2022-10-25T06:53:58.862Z,10.92
2022-10-25T06:56:26.952Z,10.98
2022-10-25T06:59:01.272Z,10.98
2022-10-25T07:01:29.604Z,11.01
2022-10-25T07:06:44.055Z,11.20
2022-10-25T07:09:13.441Z,11.30
2022-10-25T07:11:41.560Z,11.25
2022-10-25T07:14:18.212Z,11.28
2022-10-25T07:16:46.588Z,11.37
2022-10-25T07:19:15.400Z,11.43
2022-10-25T07:21:42.535Z,11.43
2022-10-25T07:24:12.511Z,11.56
2022-10-25T07:29:24.737Z,11.75
2022-10-25T07:34:33.451Z,11.91
2022-10-25T07:37:00.985Z,11.85
2022-10-25T07:42:11.789Z,11.87
2022-10-25T07:47:22.774Z,11.96
2022-10-25T07:49:50.366Z,11.81
2022-10-25T07:52:18.734Z,11.78
2022-10-25T07:54:49.833Z,11.79
2022-10-25T08:00:00.793Z,11.59
2022-10-25T08:02:29.222Z,11.54
2022-10-25T08:04:55.886Z,11.52
2022-10-25T08:07:22.674Z,11.47
2022-10-25T08:09:49.502Z,11.43
2022-10-25T08:12:20.350Z,11.30
2022-10-25T08:14:49.854Z,11.22
2022-10-25T08:17:18.433Z,11.22
2022-10-25T08:19:50.209Z,11.27
2022-10-25T08:22:18.235Z,11.33
2022-10-25T08:24:47.076Z,11.30
2022-10-25T08:27:14.213Z,11.41
2022-10-25T08:29:41.109Z,11.46
2022-10-25T08:32:09.256Z,11.53
2022-10-25T08:34:37.008Z,11.56
2022-10-25T08:37:04.230Z,11.60
2022-10-25T08:39:31.008Z,11.68
2022-10-25T08:42:01.401Z,11.95
2022-10-25T08:44:28.994Z,12.05
2022-10-25T08:47:07.472Z,11.94
2022-10-25T08:49:39.045Z,11.84
2022-10-25T08:52:06.057Z,11.79
2022-10-25T08:54:34.849Z,11.77
2022-10-25T09:00:11.839Z,11.68
2022-10-25T09:02:51.232Z,11.76
2022-10-25T09:08:51.072Z,11.85
2022-10-25T09:17:56.518Z,11.82
2022-10-25T09:23:50.539Z,11.79
2022-10-25T09:31:56.735Z,11.78
2022-10-25T09:34:25.879Z,11.85
2022-10-25T09:36:55.800Z,11.88
2022-10-25T09:39:33.294Z,11.93
2022-10-25T09:45:04.886Z,12.20
2022-10-25T09:50:13.035Z,12.39
2022-10-25T09:52:43.022Z,12.39
2022-10-25T09:55:09.932Z,12.46
2022-10-25T09:57:42.485Z,12.47
2022-10-25T10:02:55.543Z,12.14
2022-10-25T10:05:22.589Z,11.99
2022-10-25T10:10:38.801Z,11.93
2022-10-25T10:13:07.617Z,11.92
2022-10-25T10:15:39.918Z,11.97
2022-10-25T10:29:54.990Z,12.87
2022-10-25T10:35:04.491Z,12.94
2022-10-25T10:37:31.827Z,12.83
2022-10-25T10:40:00.198Z,12.78
2022-10-25T10:45:20.418Z,12.77
2022-10-25T10:53:25.938Z,13.09
2022-10-25T10:55:53.470Z,13.12
2022-10-25T11:01:19.454Z,13.15
2022-10-25T11:04:00.227Z,13.16
2022-10-25T11:09:18.117Z,13.48
2022-10-25T11:14:26.497Z,13.54
2022-10-25T11:17:13.375Z,13.93
2022-10-25T11:19:41.454Z,13.92
2022-10-25T11:25:09.021Z,13.71
2022-10-25T11:27:44.897Z,13.57
2022-10-25T11:30:16.192Z,13.49
2022-10-25T11:32:51.398Z,13.53
2022-10-25T11:40:55.464Z,13.63
2022-10-25T11:46:08.832Z,13.95
2022-10-25T11:51:31.356Z,14.05
2022-10-25T11:54:23.160Z,14.49
2022-10-25T12:11:02.313Z,14.64
2022-10-25T12:16:18.743Z,15.17
2022-10-25T13:09:26.933Z,15.54
2022-10-25T13:59:46.498Z,14.22
2022-10-25T14:27:33.971Z,14.03
2022-10-25T14:30:23.652Z,14.08
2022-10-25T14:41:12.511Z,13.74
2022-10-25T14:55:01.991Z,13.85
2022-10-25T15:39:45.873Z,12.32
2022-10-25T15:44:55.015Z,12.06
2022-10-25T15:53:11.404Z,11.63
2022-10-25T16:01:17.328Z,11.14
2022-10-25T16:06:28.202Z,10.83
2022-10-25T16:14:40.540Z,10.41
2022-10-25T16:25:32.939Z,10.08
2022-10-25T16:28:07.452Z,9.95
2022-10-25T16:33:31.490Z,9.82
2022-10-25T16:35:58.296Z,9.78
2022-10-25T16:46:43.423Z,9.47
2022-10-25T16:49:35.288Z,9.41
2022-10-25T16:52:06.313Z,9.30
2022-10-25T16:57:21.587Z,9.18
2022-10-25T16:59:48.378Z,9.15
2022-10-25T17:02:40.324Z,9.08
2022-10-25T17:05:07.461Z,8.99
2022-10-25T17:10:30.971Z,8.98
2022-10-25T17:13:03.895Z,8.89
2022-10-25T17:18:21.282Z,8.72
2022-10-25T17:20:48.473Z,8.68
2022-10-25T17:23:16.306Z,8.63
2022-10-25T17:28:22.109Z,8.56
2022-10-25T17:30:49.481Z,8.53
2022-10-25T17:41:42.489Z,8.42
2022-10-25T17:44:22.683Z,8.30
2022-10-25T18:00:54.693Z,8.15
2022-10-25T18:03:21.563Z,8.15
2022-10-25T18:17:00.504Z,8.07
2022-10-25T18:33:30.026Z,8.22
2022-10-25T18:41:52.830Z,8.57
2022-10-25T18:49:55.169Z,8.74
2022-10-25T18:55:07.803Z,8.97
2022-10-25T19:00:15.605Z,9.36
2022-10-25T19:02:42.411Z,9.20
2022-10-25T19:05:10.061Z,9.11
2022-10-25T19:07:37.118Z,9.14
2022-10-25T19:10:04.023Z,8.99
2022-10-25T19:12:35.087Z,8.74
2022-10-25T19:15:08.766Z,8.74
2022-10-25T19:17:35.505Z,8.66
2022-10-25T19:20:03.568Z,8.49
2022-10-25T19:22:30.283Z,8.31
2022-10-25T19:30:34.221Z,8.04
2022-10-25T19:41:24.011Z,7.98
2022-10-25T19:43:51.077Z,7.88
2022-10-25T19:46:18.715Z,7.86
2022-10-25T19:59:37.218Z,7.67
2022-10-25T20:07:29.636Z,7.75
2022-10-25T20:09:57.967Z,7.73
2022-10-25T20:15:16.707Z,7.69
2022-10-25T20:20:14.311Z,7.57
2022-10-25T20:28:11.016Z,7.39
2022-10-25T20:30:38.932Z,7.40
2022-10-25T20:33:32.651Z,7.42
2022-10-25T20:36:03.824Z,7.40
2022-10-25T20:38:31.163Z,7.32
2022-10-25T20:44:05.229Z,7.29
2022-10-25T20:46:45.521Z,7.33
2022-10-25T20:49:16.340Z,7.35
2022-10-25T20:57:14.470Z,7.11
2022-10-25T20:59:41.379Z,7.03
2022-10-25T21:05:01.972Z,6.90
2022-10-25T21:18:32.836Z,6.71
2022-10-25T21:21:03.382Z,6.60
2022-10-25T21:23:32.535Z,6.53
2022-10-25T21:31:24.460Z,6.40
2022-10-25T21:36:42.103Z,6.22
2022-10-25T21:39:08.905Z,6.15
2022-10-25T21:41:37.552Z,6.16
2022-10-25T21:44:13.751Z,6.24
2022-10-25T21:46:43.809Z,6.23
2022-10-25T21:49:12.327Z,6.16
2022-10-25T21:54:19.351Z,6.14
2022-10-25T21:56:46.226Z,6.13
2022-10-25T22:01:53.790Z,6.05
2022-10-25T22:04:23.178Z,6.08
2022-10-25T22:06:52.171Z,6.11
2022-10-25T22:09:19.665Z,6.14
2022-10-25T22:11:46.825Z,6.29
2022-10-25T22:14:14.875Z,6.28
2022-10-25T22:16:44.121Z,6.18
2022-10-25T22:19:15.255Z,6.13
2022-10-25T22:24:27.778Z,6.16
2022-10-25T22:26:57.580Z,6.18
2022-10-25T22:29:25.681Z,6.15
2022-10-25T22:31:52.857Z,5.93
2022-10-25T22:34:19.966Z,5.77
2022-10-25T22:36:47.020Z,5.80
2022-10-25T22:39:13.911Z,5.83
2022-10-25T22:41:41.436Z,5.93
2022-10-25T22:44:09.105Z,5.90
2022-10-25T22:46:36.893Z,5.97
2022-10-25T22:49:08.146Z,5.96
2022-10-25T22:51:35.807Z,5.92
2022-10-25T22:54:02.961Z,6.01
2022-10-25T22:59:14.178Z,6.11
2022-10-25T23:01:40.980Z,6.19
2022-10-25T23:04:08.506Z,6.36
2022-10-25T23:06:36.459Z,6.47
2022-10-25T23:09:05.003Z,6.52
2022-10-25T23:11:33.039Z,6.27
2022-10-25T23:14:02.559Z,6.29
2022-10-25T23:16:31.454Z,6.27
2022-10-25T23:18:59.085Z,6.33
2022-10-25T23:21:26.802Z,6.37
2022-10-25T23:23:54.385Z,6.41
2022-10-25T23:26:25.312Z,6.46
2022-10-25T23:28:52.403Z,6.45
2022-10-25T23:31:19.414Z,6.89
2022-10-25T23:33:46.567Z,7.09
2022-10-25T23:36:13.326Z,7.15
2022-10-25T23:38:41.067Z,7.08
2022-10-25T23:41:07.957Z,7.25
2022-10-25T23:43:35.311Z,7.39
2022-10-25T23:46:03.126Z,7.44
2022-10-25T23:48:30.230Z,7.44
2022-10-25T23:50:57.205Z,7.50
2022-10-25T23:53:24.201Z,7.79
2022-10-25T23:55:51.318Z,7.93
2022-10-25T23:58:18.455Z,8.03
